JAL4LF PGUM-RJAA
Flight info
| Callsign | JAL4LF |
|---|---|
| Flight time | 3h 19m |
| Altitude | 40000 |
| Route | TOESS B586 VASKO UKATA B586 IPRET/N0470F410 B586 SABRI Y873 FITTO Y87 BAFFY Y81 RUTAS |
| Aircraft | B788/H-SDE1E2E3FGHIJ2J3J4J5M1RWXY/LB1D1 |
Departure
| Time | 2026-04-23 07:19 |
|---|---|
| Airport | Antonio B. Won Pat International Airport (PGUM) |
Arrival
| Time | 2026-04-23 10:38 |
|---|---|
| Airport | Narita International Airport (RJAA) |
| Time | Latitude | Longitude | Altitude | Speed | Heading |
|---|---|---|---|---|---|
| 2026-04-23 07:12 | 13.49494 | 144.80983 | 313 ft | 0 kts | 152° |
| 2026-04-23 07:13 | 13.49492 | 144.80984 | 313 ft | 3 kts | 151° |
| 2026-04-23 07:13 | 13.49436 | 144.81017 | 316 ft | 16 kts | 150° |
| 2026-04-23 07:13 | 13.49322 | 144.81020 | 317 ft | 18 kts | 234° |
| 2026-04-23 07:13 | 13.49250 | 144.80891 | 314 ft | 23 kts | 241° |
| 2026-04-23 07:14 | 13.49164 | 144.80732 | 308 ft | 27 kts | 242° |
| 2026-04-23 07:14 | 13.49075 | 144.80558 | 306 ft | 28 kts | 240° |
| 2026-04-23 07:14 | 13.48958 | 144.80391 | 303 ft | 29 kts | 224° |
| 2026-04-23 07:14 | 13.48846 | 144.80215 | 301 ft | 30 kts | 244° |
| 2026-04-23 07:15 | 13.48751 | 144.80015 | 293 ft | 32 kts | 244° |
| 2026-04-23 07:15 | 13.48654 | 144.79802 | 288 ft | 34 kts | 245° |
| 2026-04-23 07:15 | 13.48553 | 144.79583 | 280 ft | 33 kts | 244° |
| 2026-04-23 07:15 | 13.48474 | 144.79413 | 275 ft | 17 kts | 242° |
| 2026-04-23 07:16 | 13.48432 | 144.79317 | 274 ft | 18 kts | 245° |
| 2026-04-23 07:16 | 13.48364 | 144.79166 | 271 ft | 29 kts | 244° |
| 2026-04-23 07:16 | 13.48274 | 144.78968 | 271 ft | 31 kts | 245° |
| 2026-04-23 07:16 | 13.48179 | 144.78759 | 267 ft | 33 kts | 245° |
| 2026-04-23 07:17 | 13.48077 | 144.78542 | 261 ft | 35 kts | 245° |
| 2026-04-23 07:17 | 13.47971 | 144.78315 | 253 ft | 34 kts | 243° |
| 2026-04-23 07:17 | 13.47873 | 144.78139 | 248 ft | 10 kts | 209° |
| 2026-04-23 07:17 | 13.47849 | 144.78134 | 248 ft | 2 kts | 162° |
| 2026-04-23 07:18 | 13.47799 | 144.78157 | 249 ft | 6 kts | 142° |
| 2026-04-23 07:18 | 13.47794 | 144.78167 | 249 ft | 2 kts | 91° |
| 2026-04-23 07:18 | 13.47817 | 144.78231 | 250 ft | 29 kts | 65° |
| 2026-04-23 07:18 | 13.47992 | 144.78612 | 259 ft | 88 kts | 66° |
| 2026-04-23 07:19 | 13.48327 | 144.79360 | 289 ft | 139 kts | 67° |
| 2026-04-23 07:19 | 13.48738 | 144.80322 | 820 ft | 150 kts | 70° |
| 2026-04-23 07:19 | 13.49158 | 144.81260 | 1669 ft | 158 kts | 66° |
| 2026-04-23 07:19 | 13.49669 | 144.82385 | 2300 ft | 190 kts | 66° |
| 2026-04-23 07:20 | 13.50291 | 144.83719 | 2945 ft | 222 kts | 66° |
| 2026-04-23 07:20 | 13.51000 | 144.85250 | 3684 ft | 251 kts | 66° |
| 2026-04-23 07:20 | 13.51758 | 144.86893 | 3997 ft | 260 kts | 66° |
| 2026-04-23 07:20 | 13.52798 | 144.88416 | 4106 ft | 262 kts | 45° |
| 2026-04-23 07:21 | 13.54328 | 144.89409 | 4129 ft | 264 kts | 23° |
| 2026-04-23 07:21 | 13.56160 | 144.89725 | 4123 ft | 272 kts | 0° |
| 2026-04-23 07:21 | 13.58039 | 144.89361 | 4119 ft | 275 kts | 350° |
| 2026-04-23 07:21 | 13.59878 | 144.88887 | 4114 ft | 276 kts | 349° |
| 2026-04-23 07:22 | 13.61739 | 144.88389 | 4114 ft | 276 kts | 349° |
| 2026-04-23 07:22 | 13.63616 | 144.87894 | 4328 ft | 280 kts | 349° |
| 2026-04-23 07:22 | 13.65480 | 144.87410 | 5764 ft | 276 kts | 349° |
| 2026-04-23 07:22 | 13.67363 | 144.86922 | 6931 ft | 282 kts | 349° |
| 2026-04-23 07:23 | 13.68631 | 144.86592 | 7688 ft | 285 kts | 349° |
| 2026-04-23 07:23 | 13.71210 | 144.85917 | 9193 ft | 291 kts | 349° |
| 2026-04-23 07:23 | 13.72525 | 144.85573 | 9956 ft | 294 kts | 348° |
| 2026-04-23 07:23 | 13.74566 | 144.85042 | 10644 ft | 316 kts | 348° |
| 2026-04-23 07:24 | 13.76798 | 144.84462 | 11040 ft | 344 kts | 347° |
| 2026-04-23 07:24 | 13.79183 | 144.83834 | 11737 ft | 357 kts | 347° |
| 2026-04-23 07:24 | 13.81599 | 144.83199 | 12817 ft | 361 kts | 346° |
| 2026-04-23 07:24 | 13.84023 | 144.82566 | 13834 ft | 365 kts | 346° |
| 2026-04-23 07:25 | 13.86520 | 144.81915 | 14764 ft | 370 kts | 345° |
| 2026-04-23 07:25 | 13.89033 | 144.81257 | 15687 ft | 374 kts | 345° |
| 2026-04-23 07:25 | 13.91575 | 144.80591 | 16585 ft | 379 kts | 345° |
| 2026-04-23 07:25 | 13.94140 | 144.79920 | 17482 ft | 382 kts | 345° |
| 2026-04-23 07:26 | 13.96716 | 144.79246 | 18336 ft | 387 kts | 345° |
| 2026-04-23 07:26 | 13.99360 | 144.78554 | 19067 ft | 391 kts | 345° |
| 2026-04-23 07:26 | 14.02010 | 144.77859 | 19798 ft | 396 kts | 345° |
| 2026-04-23 07:26 | 14.04699 | 144.77154 | 20521 ft | 400 kts | 345° |
| 2026-04-23 07:27 | 14.07388 | 144.76450 | 21219 ft | 404 kts | 345° |
| 2026-04-23 07:27 | 14.10139 | 144.75729 | 21895 ft | 409 kts | 345° |
| 2026-04-23 07:27 | 14.12939 | 144.74995 | 22574 ft | 413 kts | 345° |
| 2026-04-23 07:27 | 14.15705 | 144.74270 | 23230 ft | 418 kts | 345° |
| 2026-04-23 07:28 | 14.18540 | 144.73526 | 23812 ft | 422 kts | 344° |
| 2026-04-23 07:28 | 14.21418 | 144.72771 | 24349 ft | 426 kts | 344° |
| 2026-04-23 07:28 | 14.24305 | 144.72013 | 24897 ft | 429 kts | 344° |
| 2026-04-23 07:28 | 14.27179 | 144.71259 | 25447 ft | 431 kts | 344° |
| 2026-04-23 07:29 | 14.30102 | 144.70492 | 25955 ft | 435 kts | 344° |
| 2026-04-23 07:29 | 14.33063 | 144.69714 | 26461 ft | 439 kts | 344° |
| 2026-04-23 07:29 | 14.36008 | 144.68940 | 26967 ft | 442 kts | 344° |
| 2026-04-23 07:29 | 14.39007 | 144.68152 | 27449 ft | 446 kts | 344° |
| 2026-04-23 07:30 | 14.42036 | 144.67356 | 27938 ft | 449 kts | 344° |
| 2026-04-23 07:30 | 14.45082 | 144.66555 | 28417 ft | 452 kts | 344° |
| 2026-04-23 07:30 | 14.48123 | 144.65755 | 28880 ft | 456 kts | 343° |
| 2026-04-23 07:30 | 14.51227 | 144.64939 | 29336 ft | 459 kts | 343° |
| 2026-04-23 07:31 | 14.54310 | 144.64128 | 29791 ft | 462 kts | 343° |
| 2026-04-23 07:31 | 14.57440 | 144.63304 | 30188 ft | 465 kts | 343° |
| 2026-04-23 07:31 | 14.60597 | 144.62472 | 30536 ft | 468 kts | 343° |
| 2026-04-23 07:31 | 14.63736 | 144.61646 | 30858 ft | 471 kts | 343° |
| 2026-04-23 07:32 | 14.66936 | 144.60803 | 31188 ft | 475 kts | 343° |
| 2026-04-23 07:32 | 14.70152 | 144.59955 | 31515 ft | 478 kts | 343° |
| 2026-04-23 07:32 | 14.73388 | 144.59102 | 31830 ft | 480 kts | 343° |
| 2026-04-23 07:32 | 14.76644 | 144.58243 | 32137 ft | 483 kts | 343° |
| 2026-04-23 07:33 | 14.79883 | 144.57389 | 32424 ft | 486 kts | 343° |
| 2026-04-23 07:33 | 14.83174 | 144.56521 | 32716 ft | 489 kts | 343° |
| 2026-04-23 07:33 | 14.86490 | 144.55645 | 33000 ft | 492 kts | 343° |
| 2026-04-23 07:33 | 14.89827 | 144.54764 | 33269 ft | 495 kts | 343° |
| 2026-04-23 07:34 | 14.93174 | 144.53880 | 33543 ft | 497 kts | 343° |
| 2026-04-23 07:34 | 14.96536 | 144.52992 | 33794 ft | 500 kts | 343° |
| 2026-04-23 07:34 | 14.99880 | 144.52109 | 34042 ft | 502 kts | 343° |
| 2026-04-23 07:34 | 15.03276 | 144.51211 | 34290 ft | 504 kts | 343° |
| 2026-04-23 07:35 | 15.06681 | 144.50311 | 34627 ft | 503 kts | 343° |
| 2026-04-23 07:35 | 15.10079 | 144.49412 | 35015 ft | 501 kts | 343° |
| 2026-04-23 07:35 | 15.13427 | 144.48526 | 35384 ft | 499 kts | 343° |
| 2026-04-23 07:35 | 15.16806 | 144.47631 | 35761 ft | 498 kts | 343° |
| 2026-04-23 07:36 | 15.20171 | 144.46740 | 36127 ft | 496 kts | 343° |
| 2026-04-23 07:36 | 15.23475 | 144.45865 | 36493 ft | 494 kts | 343° |
| 2026-04-23 07:36 | 15.26819 | 144.44979 | 36865 ft | 493 kts | 343° |
| 2026-04-23 07:36 | 15.30112 | 144.44106 | 37203 ft | 491 kts | 343° |
| 2026-04-23 07:37 | 15.33419 | 144.43230 | 37557 ft | 490 kts | 343° |
| 2026-04-23 07:37 | 15.36725 | 144.42353 | 37900 ft | 489 kts | 343° |
| 2026-04-23 07:37 | 15.40020 | 144.41478 | 38241 ft | 487 kts | 343° |
| 2026-04-23 07:37 | 15.43300 | 144.40608 | 38573 ft | 486 kts | 343° |
| 2026-04-23 07:38 | 15.46579 | 144.39737 | 38851 ft | 485 kts | 343° |
| 2026-04-23 07:38 | 15.49843 | 144.38870 | 39105 ft | 484 kts | 343° |
| 2026-04-23 07:38 | 15.53117 | 144.38001 | 39329 ft | 484 kts | 343° |
| 2026-04-23 07:38 | 15.56380 | 144.37133 | 39554 ft | 484 kts | 343° |
| 2026-04-23 07:39 | 15.59605 | 144.36276 | 39785 ft | 484 kts | 343° |
| 2026-04-23 07:39 | 15.62871 | 144.35407 | 39949 ft | 485 kts | 343° |
| 2026-04-23 07:39 | 15.66171 | 144.34529 | 39942 ft | 488 kts | 343° |
| 2026-04-23 07:40 | 15.72715 | 144.32789 | 39941 ft | 485 kts | 343° |
| 2026-04-23 07:40 | 15.79251 | 144.31047 | 39945 ft | 482 kts | 343° |
| 2026-04-23 07:41 | 15.85715 | 144.29324 | 39945 ft | 482 kts | 343° |
| 2026-04-23 07:41 | 15.92240 | 144.27585 | 39941 ft | 482 kts | 343° |
| 2026-04-23 07:42 | 15.98720 | 144.25855 | 39942 ft | 483 kts | 343° |
| 2026-04-23 07:42 | 16.05245 | 144.24113 | 39949 ft | 483 kts | 342° |
| 2026-04-23 07:43 | 16.11785 | 144.22365 | 39951 ft | 484 kts | 342° |
| 2026-04-23 07:43 | 16.18286 | 144.20627 | 39951 ft | 484 kts | 342° |
| 2026-04-23 07:44 | 16.24840 | 144.18873 | 39953 ft | 485 kts | 342° |
| 2026-04-23 07:44 | 16.31355 | 144.17129 | 39950 ft | 485 kts | 342° |
| 2026-04-23 07:45 | 16.37896 | 144.15376 | 39958 ft | 486 kts | 342° |
| 2026-04-23 07:45 | 16.44427 | 144.13625 | 39963 ft | 486 kts | 342° |
| 2026-04-23 07:46 | 16.50991 | 144.11864 | 39965 ft | 484 kts | 342° |
| 2026-04-23 07:46 | 16.57467 | 144.10125 | 39956 ft | 482 kts | 342° |
| 2026-04-23 07:47 | 16.63967 | 144.08378 | 39957 ft | 482 kts | 342° |
| 2026-04-23 07:47 | 16.70438 | 144.06638 | 39962 ft | 483 kts | 342° |
| 2026-04-23 07:48 | 16.76991 | 144.04875 | 39964 ft | 485 kts | 342° |
| 2026-04-23 07:48 | 16.83505 | 144.03120 | 39971 ft | 486 kts | 342° |
| 2026-04-23 07:49 | 16.90057 | 144.01355 | 39972 ft | 485 kts | 342° |
| 2026-04-23 07:49 | 16.96570 | 143.99599 | 39973 ft | 484 kts | 342° |
| 2026-04-23 07:50 | 17.03106 | 143.97835 | 39972 ft | 483 kts | 342° |
| 2026-04-23 07:50 | 17.09603 | 143.96081 | 39973 ft | 483 kts | 342° |
| 2026-04-23 07:51 | 17.16096 | 143.94326 | 39973 ft | 482 kts | 342° |
| 2026-04-23 07:51 | 17.22607 | 143.92566 | 39976 ft | 481 kts | 342° |
| 2026-04-23 07:52 | 17.29064 | 143.90818 | 39976 ft | 481 kts | 342° |
| 2026-04-23 07:52 | 17.35558 | 143.89059 | 39977 ft | 481 kts | 342° |
| 2026-04-23 07:53 | 17.42016 | 143.87309 | 39979 ft | 481 kts | 342° |
| 2026-04-23 07:53 | 17.48511 | 143.85547 | 39980 ft | 481 kts | 342° |
| 2026-04-23 07:54 | 17.54968 | 143.83795 | 39978 ft | 481 kts | 342° |
| 2026-04-23 07:54 | 17.61528 | 143.82193 | 39979 ft | 482 kts | 343° |
| 2026-04-23 07:55 | 17.68029 | 143.80579 | 39982 ft | 483 kts | 343° |
| 2026-04-23 07:55 | 17.74612 | 143.79024 | 39983 ft | 484 kts | 343° |
| 2026-04-23 07:56 | 17.81137 | 143.77433 | 39977 ft | 484 kts | 343° |
| 2026-04-23 07:56 | 17.87728 | 143.75852 | 39984 ft | 484 kts | 343° |
| 2026-04-23 07:57 | 17.94253 | 143.74272 | 39984 ft | 483 kts | 343° |
| 2026-04-23 07:57 | 18.00817 | 143.72687 | 39982 ft | 483 kts | 343° |
| 2026-04-23 07:58 | 18.07345 | 143.71108 | 39985 ft | 483 kts | 343° |
| 2026-04-23 07:58 | 18.13904 | 143.69520 | 39986 ft | 482 kts | 343° |
| 2026-04-23 07:59 | 18.20464 | 143.67931 | 39985 ft | 482 kts | 343° |
| 2026-04-23 07:59 | 18.26983 | 143.66351 | 39988 ft | 482 kts | 343° |
| 2026-04-23 08:00 | 18.33497 | 143.64771 | 39993 ft | 481 kts | 343° |
| 2026-04-23 08:00 | 18.40010 | 143.63189 | 39987 ft | 481 kts | 343° |
| 2026-04-23 08:01 | 18.46546 | 143.61601 | 39989 ft | 480 kts | 343° |
| 2026-04-23 08:01 | 18.53049 | 143.60019 | 39990 ft | 481 kts | 343° |
| 2026-04-23 08:02 | 18.59539 | 143.58440 | 39991 ft | 480 kts | 343° |
| 2026-04-23 08:02 | 18.66069 | 143.56850 | 39990 ft | 480 kts | 343° |
| 2026-04-23 08:03 | 18.72564 | 143.55267 | 39989 ft | 480 kts | 343° |
| 2026-04-23 08:03 | 18.79107 | 143.53671 | 39992 ft | 480 kts | 343° |
| 2026-04-23 08:04 | 18.85593 | 143.52087 | 39991 ft | 480 kts | 343° |
| 2026-04-23 08:04 | 18.92134 | 143.50489 | 39996 ft | 480 kts | 343° |
| 2026-04-23 08:05 | 18.98630 | 143.48901 | 39994 ft | 480 kts | 343° |
| 2026-04-23 08:05 | 19.05163 | 143.47302 | 39997 ft | 480 kts | 343° |
| 2026-04-23 08:06 | 19.11645 | 143.45715 | 39997 ft | 480 kts | 343° |
| 2026-04-23 08:06 | 19.18165 | 143.44116 | 40002 ft | 479 kts | 343° |
| 2026-04-23 08:07 | 19.24635 | 143.42529 | 40001 ft | 478 kts | 343° |
| 2026-04-23 08:07 | 19.31109 | 143.40940 | 40001 ft | 478 kts | 343° |
| 2026-04-23 08:08 | 19.37606 | 143.39343 | 40001 ft | 477 kts | 343° |
| 2026-04-23 08:08 | 19.44056 | 143.37757 | 39999 ft | 476 kts | 343° |
| 2026-04-23 08:09 | 19.50489 | 143.36174 | 40002 ft | 476 kts | 343° |
| 2026-04-23 08:09 | 19.55852 | 143.34853 | 40002 ft | 475 kts | 343° |
| 2026-04-23 08:10 | 19.63386 | 143.32996 | 40002 ft | 477 kts | 343° |
| 2026-04-23 08:10 | 19.72041 | 143.30860 | 40004 ft | 479 kts | 343° |
| 2026-04-23 08:11 | 19.78516 | 143.29261 | 40006 ft | 479 kts | 343° |
| 2026-04-23 08:11 | 19.85008 | 143.27657 | 40009 ft | 478 kts | 343° |
| 2026-04-23 08:12 | 19.91496 | 143.26052 | 40005 ft | 476 kts | 343° |
| 2026-04-23 08:12 | 19.97919 | 143.24461 | 40012 ft | 475 kts | 343° |
| 2026-04-23 08:13 | 20.04363 | 143.22864 | 40010 ft | 474 kts | 343° |
| 2026-04-23 08:13 | 20.10767 | 143.21275 | 40012 ft | 474 kts | 343° |
| 2026-04-23 08:14 | 20.17222 | 143.19673 | 40011 ft | 475 kts | 343° |
| 2026-04-23 08:14 | 20.23655 | 143.18075 | 40012 ft | 477 kts | 343° |
| 2026-04-23 08:15 | 20.30123 | 143.16466 | 40012 ft | 478 kts | 343° |
| 2026-04-23 08:15 | 20.36574 | 143.14861 | 40013 ft | 477 kts | 343° |
| 2026-04-23 08:16 | 20.43050 | 143.13248 | 40014 ft | 476 kts | 343° |
| 2026-04-23 08:16 | 20.49475 | 143.11646 | 40010 ft | 475 kts | 343° |
| 2026-04-23 08:17 | 20.55908 | 143.10041 | 40016 ft | 474 kts | 343° |
| 2026-04-23 08:17 | 20.62293 | 143.08446 | 40015 ft | 473 kts | 343° |
| 2026-04-23 08:18 | 20.68721 | 143.06840 | 40018 ft | 472 kts | 343° |
| 2026-04-23 08:18 | 20.75106 | 143.05242 | 40017 ft | 474 kts | 343° |
| 2026-04-23 08:19 | 20.81534 | 143.03633 | 40025 ft | 474 kts | 343° |
| 2026-04-23 08:19 | 20.87984 | 143.02016 | 40018 ft | 475 kts | 343° |
| 2026-04-23 08:20 | 20.94411 | 143.00404 | 40014 ft | 476 kts | 343° |
| 2026-04-23 08:20 | 21.00869 | 142.98809 | 40025 ft | 474 kts | 346° |
| 2026-04-23 08:21 | 21.07290 | 142.97319 | 40021 ft | 473 kts | 344° |
| 2026-04-23 08:21 | 21.13740 | 142.95816 | 40020 ft | 473 kts | 345° |
| 2026-04-23 08:22 | 21.20152 | 142.94344 | 40020 ft | 473 kts | 344° |
| 2026-04-23 08:22 | 21.26595 | 142.92838 | 40021 ft | 473 kts | 345° |
| 2026-04-23 08:23 | 21.33011 | 142.91358 | 40020 ft | 473 kts | 345° |
| 2026-04-23 08:23 | 21.39446 | 142.89857 | 40025 ft | 473 kts | 345° |
| 2026-04-23 08:24 | 21.45861 | 142.88370 | 40025 ft | 473 kts | 345° |
| 2026-04-23 08:24 | 21.52310 | 142.86867 | 40019 ft | 473 kts | 345° |
| 2026-04-23 08:25 | 21.58721 | 142.85375 | 40027 ft | 473 kts | 345° |
| 2026-04-23 08:25 | 21.65184 | 142.83867 | 40027 ft | 473 kts | 345° |
| 2026-04-23 08:26 | 21.71582 | 142.82375 | 40024 ft | 473 kts | 345° |
| 2026-04-23 08:26 | 21.78032 | 142.80868 | 40024 ft | 473 kts | 345° |
| 2026-04-23 08:27 | 21.84443 | 142.79370 | 40027 ft | 472 kts | 345° |
| 2026-04-23 08:27 | 21.90851 | 142.77870 | 40026 ft | 470 kts | 345° |
| 2026-04-23 08:28 | 21.97257 | 142.76370 | 40025 ft | 469 kts | 345° |
| 2026-04-23 08:28 | 22.03605 | 142.74882 | 40030 ft | 468 kts | 345° |
| 2026-04-23 08:29 | 22.09988 | 142.73384 | 40025 ft | 469 kts | 345° |
| 2026-04-23 08:29 | 22.16344 | 142.71892 | 40026 ft | 468 kts | 345° |
| 2026-04-23 08:30 | 22.22725 | 142.70391 | 40025 ft | 468 kts | 345° |
| 2026-04-23 08:30 | 22.29045 | 142.68905 | 40029 ft | 467 kts | 345° |
| 2026-04-23 08:31 | 22.35410 | 142.67406 | 40028 ft | 467 kts | 345° |
| 2026-04-23 08:31 | 22.41778 | 142.65905 | 40026 ft | 467 kts | 345° |
| 2026-04-23 08:32 | 22.48130 | 142.64406 | 40028 ft | 468 kts | 345° |
| 2026-04-23 08:32 | 22.54469 | 142.62909 | 40034 ft | 468 kts | 345° |
| 2026-04-23 08:33 | 22.60830 | 142.61405 | 40029 ft | 468 kts | 345° |
| 2026-04-23 08:33 | 22.67200 | 142.59898 | 40025 ft | 467 kts | 345° |
| 2026-04-23 08:34 | 22.73530 | 142.58399 | 40026 ft | 466 kts | 345° |
| 2026-04-23 08:34 | 22.79847 | 142.56901 | 40028 ft | 465 kts | 345° |
| 2026-04-23 08:35 | 22.86182 | 142.55398 | 40028 ft | 464 kts | 345° |
| 2026-04-23 08:35 | 22.92456 | 142.53908 | 40027 ft | 464 kts | 345° |
| 2026-04-23 08:36 | 22.98780 | 142.52404 | 40029 ft | 464 kts | 345° |
| 2026-04-23 08:36 | 23.05100 | 142.50900 | 40029 ft | 465 kts | 345° |
| 2026-04-23 08:37 | 23.11399 | 142.49400 | 40029 ft | 465 kts | 345° |
| 2026-04-23 08:37 | 23.17743 | 142.47888 | 40032 ft | 466 kts | 345° |
| 2026-04-23 08:38 | 23.24050 | 142.46383 | 40030 ft | 465 kts | 345° |
| 2026-04-23 08:38 | 23.30356 | 142.44876 | 40026 ft | 464 kts | 345° |
| 2026-04-23 08:39 | 23.36664 | 142.43368 | 40026 ft | 462 kts | 345° |
| 2026-04-23 08:39 | 23.42946 | 142.41864 | 40027 ft | 461 kts | 345° |
| 2026-04-23 08:40 | 23.49192 | 142.40368 | 40024 ft | 460 kts | 345° |
| 2026-04-23 08:40 | 23.55437 | 142.38870 | 40026 ft | 461 kts | 345° |
| 2026-04-23 08:41 | 23.61709 | 142.37365 | 40028 ft | 461 kts | 345° |
| 2026-04-23 08:41 | 23.67961 | 142.35862 | 40027 ft | 462 kts | 345° |
| 2026-04-23 08:42 | 23.74231 | 142.34354 | 40027 ft | 462 kts | 345° |
| 2026-04-23 08:42 | 23.80521 | 142.32840 | 40027 ft | 462 kts | 345° |
| 2026-04-23 08:43 | 23.86774 | 142.31333 | 40029 ft | 460 kts | 345° |
| 2026-04-23 08:43 | 23.93009 | 142.29829 | 40028 ft | 459 kts | 345° |
| 2026-04-23 08:44 | 23.99264 | 142.28319 | 40029 ft | 458 kts | 345° |
| 2026-04-23 08:44 | 24.05458 | 142.26822 | 40028 ft | 457 kts | 345° |
| 2026-04-23 08:45 | 24.11675 | 142.25317 | 40026 ft | 457 kts | 345° |
| 2026-04-23 08:45 | 24.17865 | 142.23818 | 40025 ft | 458 kts | 345° |
| 2026-04-23 08:46 | 24.24093 | 142.22308 | 40024 ft | 459 kts | 345° |
| 2026-04-23 08:46 | 24.30356 | 142.20788 | 40027 ft | 459 kts | 345° |
| 2026-04-23 08:47 | 24.36577 | 142.19277 | 40028 ft | 459 kts | 345° |
| 2026-04-23 08:47 | 24.42815 | 142.17760 | 40028 ft | 458 kts | 345° |
| 2026-04-23 08:48 | 24.49012 | 142.16252 | 40027 ft | 457 kts | 345° |
| 2026-04-23 08:48 | 24.55228 | 142.14737 | 40031 ft | 456 kts | 345° |
| 2026-04-23 08:49 | 24.61427 | 142.13225 | 40029 ft | 456 kts | 345° |
| 2026-04-23 08:49 | 24.67585 | 142.11722 | 40025 ft | 455 kts | 345° |
| 2026-04-23 08:50 | 24.73751 | 142.10215 | 40030 ft | 454 kts | 345° |
| 2026-04-23 08:50 | 24.79940 | 142.08701 | 40026 ft | 455 kts | 345° |
| 2026-04-23 08:51 | 24.86095 | 142.07200 | 40029 ft | 456 kts | 345° |
| 2026-04-23 08:51 | 24.92316 | 142.05680 | 40026 ft | 456 kts | 345° |
| 2026-04-23 08:52 | 24.98488 | 142.04171 | 40031 ft | 456 kts | 345° |
| 2026-04-23 08:52 | 25.04602 | 142.02347 | 40029 ft | 455 kts | 341° |
| 2026-04-23 08:53 | 25.10686 | 142.00380 | 40028 ft | 455 kts | 341° |
| 2026-04-23 08:53 | 25.16744 | 141.98418 | 40033 ft | 456 kts | 341° |
| 2026-04-23 08:54 | 25.22841 | 141.96441 | 40029 ft | 456 kts | 341° |
| 2026-04-23 08:54 | 25.28959 | 141.94456 | 40033 ft | 457 kts | 341° |
| 2026-04-23 08:55 | 25.35017 | 141.92488 | 40027 ft | 456 kts | 340° |
| 2026-04-23 08:55 | 25.41111 | 141.90506 | 40025 ft | 454 kts | 340° |
| 2026-04-23 08:56 | 25.47145 | 141.88541 | 40030 ft | 453 kts | 340° |
| 2026-04-23 08:56 | 25.52187 | 141.86898 | 40025 ft | 454 kts | 340° |
| 2026-04-23 08:57 | 25.58275 | 141.84912 | 40022 ft | 455 kts | 340° |
| 2026-04-23 08:57 | 25.64336 | 141.82933 | 40017 ft | 456 kts | 340° |
| 2026-04-23 08:58 | 25.70442 | 141.80937 | 40022 ft | 457 kts | 340° |
| 2026-04-23 08:58 | 25.76519 | 141.78949 | 40014 ft | 457 kts | 340° |
| 2026-04-23 08:59 | 25.82615 | 141.76952 | 40011 ft | 455 kts | 340° |
| 2026-04-23 08:59 | 25.88648 | 141.74973 | 40013 ft | 453 kts | 340° |
| 2026-04-23 09:00 | 25.94661 | 141.72999 | 40013 ft | 452 kts | 340° |
| 2026-04-23 09:00 | 26.00716 | 141.71009 | 40009 ft | 453 kts | 339° |
| 2026-04-23 09:01 | 26.06768 | 141.69018 | 40013 ft | 452 kts | 339° |
| 2026-04-23 09:01 | 26.12786 | 141.67036 | 40022 ft | 452 kts | 339° |
| 2026-04-23 09:02 | 26.18827 | 141.65045 | 40018 ft | 451 kts | 339° |
| 2026-04-23 09:02 | 26.24829 | 141.63064 | 40014 ft | 451 kts | 339° |
| 2026-04-23 09:03 | 26.30821 | 141.61084 | 40016 ft | 450 kts | 339° |
| 2026-04-23 09:03 | 26.36842 | 141.59092 | 40014 ft | 450 kts | 339° |
| 2026-04-23 09:04 | 26.42827 | 141.57110 | 40012 ft | 450 kts | 339° |
| 2026-04-23 09:04 | 26.48856 | 141.55112 | 40012 ft | 450 kts | 339° |
| 2026-04-23 09:05 | 26.54849 | 141.53123 | 40014 ft | 450 kts | 339° |
| 2026-04-23 09:05 | 26.60830 | 141.51136 | 40012 ft | 449 kts | 339° |
| 2026-04-23 09:06 | 26.66844 | 141.49136 | 40014 ft | 449 kts | 339° |
| 2026-04-23 09:06 | 26.72810 | 141.47150 | 40008 ft | 449 kts | 339° |
| 2026-04-23 09:07 | 26.78809 | 141.45151 | 40008 ft | 449 kts | 339° |
| 2026-04-23 09:07 | 26.84773 | 141.43161 | 40001 ft | 449 kts | 339° |
| 2026-04-23 09:08 | 26.90787 | 141.41152 | 40006 ft | 449 kts | 339° |
| 2026-04-23 09:08 | 26.96751 | 141.39157 | 40003 ft | 449 kts | 339° |
| 2026-04-23 09:09 | 27.02756 | 141.37147 | 40004 ft | 449 kts | 339° |
| 2026-04-23 09:09 | 27.08726 | 141.35146 | 39998 ft | 449 kts | 338° |
| 2026-04-23 09:10 | 27.17691 | 141.32138 | 40001 ft | 447 kts | 338° |
| 2026-04-23 09:11 | 27.23659 | 141.30132 | 40001 ft | 445 kts | 338° |
| 2026-04-23 09:11 | 27.29566 | 141.28144 | 39999 ft | 444 kts | 338° |
| 2026-04-23 09:12 | 27.35515 | 141.26140 | 40002 ft | 445 kts | 338° |
| 2026-04-23 09:12 | 27.41443 | 141.24141 | 40002 ft | 446 kts | 338° |
| 2026-04-23 09:13 | 27.47387 | 141.22134 | 39997 ft | 447 kts | 338° |
| 2026-04-23 09:13 | 27.53355 | 141.20117 | 39998 ft | 447 kts | 338° |
| 2026-04-23 09:14 | 27.59318 | 141.18100 | 39994 ft | 446 kts | 338° |
| 2026-04-23 09:14 | 27.65250 | 141.16090 | 39990 ft | 445 kts | 338° |
| 2026-04-23 09:15 | 27.71189 | 141.14076 | 39993 ft | 445 kts | 338° |
| 2026-04-23 09:15 | 27.77110 | 141.12066 | 39990 ft | 444 kts | 337° |
| 2026-04-23 09:16 | 27.82999 | 141.10064 | 39991 ft | 444 kts | 337° |
| 2026-04-23 09:16 | 27.88936 | 141.08043 | 39993 ft | 444 kts | 337° |
| 2026-04-23 09:17 | 27.94850 | 141.06029 | 39988 ft | 445 kts | 337° |
| 2026-04-23 09:17 | 28.00800 | 141.04000 | 39984 ft | 446 kts | 337° |
| 2026-04-23 09:18 | 28.06757 | 141.01965 | 39979 ft | 447 kts | 337° |
| 2026-04-23 09:18 | 28.12723 | 140.99926 | 39986 ft | 448 kts | 337° |
| 2026-04-23 09:19 | 28.18689 | 140.97884 | 39979 ft | 449 kts | 337° |
| 2026-04-23 09:19 | 28.24643 | 140.95844 | 39980 ft | 449 kts | 336° |
| 2026-04-23 09:20 | 28.30608 | 140.93798 | 39974 ft | 448 kts | 336° |
| 2026-04-23 09:20 | 28.36594 | 140.91742 | 39974 ft | 448 kts | 336° |
| 2026-04-23 09:21 | 28.42572 | 140.89686 | 39966 ft | 448 kts | 336° |
| 2026-04-23 09:21 | 28.48523 | 140.87637 | 39954 ft | 448 kts | 336° |
| 2026-04-23 09:22 | 28.54497 | 140.85578 | 39967 ft | 448 kts | 336° |
| 2026-04-23 09:22 | 28.60444 | 140.83526 | 39966 ft | 448 kts | 336° |
| 2026-04-23 09:23 | 28.66425 | 140.81459 | 39965 ft | 448 kts | 336° |
| 2026-04-23 09:23 | 28.72370 | 140.79403 | 39957 ft | 448 kts | 336° |
| 2026-04-23 09:24 | 28.78327 | 140.77340 | 39962 ft | 448 kts | 336° |
| 2026-04-23 09:24 | 28.84297 | 140.75270 | 39957 ft | 448 kts | 336° |
| 2026-04-23 09:25 | 28.90277 | 140.73194 | 39950 ft | 448 kts | 336° |
| 2026-04-23 09:25 | 28.96226 | 140.71126 | 39955 ft | 448 kts | 335° |
| 2026-04-23 09:26 | 29.02219 | 140.69041 | 39951 ft | 448 kts | 335° |
| 2026-04-23 09:26 | 29.08148 | 140.66975 | 39949 ft | 448 kts | 335° |
| 2026-04-23 09:27 | 29.14103 | 140.64898 | 39942 ft | 448 kts | 335° |
| 2026-04-23 09:27 | 29.20090 | 140.62806 | 39945 ft | 450 kts | 335° |
| 2026-04-23 09:28 | 29.26096 | 140.60706 | 39946 ft | 451 kts | 335° |
| 2026-04-23 09:28 | 29.32122 | 140.58597 | 39942 ft | 452 kts | 335° |
| 2026-04-23 09:29 | 29.38120 | 140.56494 | 39941 ft | 453 kts | 335° |
| 2026-04-23 09:29 | 29.44154 | 140.54377 | 39936 ft | 451 kts | 335° |
| 2026-04-23 09:30 | 29.50132 | 140.52276 | 39936 ft | 450 kts | 335° |
| 2026-04-23 09:30 | 29.56100 | 140.50176 | 39931 ft | 449 kts | 335° |
| 2026-04-23 09:31 | 29.62079 | 140.48070 | 39926 ft | 449 kts | 334° |
| 2026-04-23 09:31 | 29.68043 | 140.45966 | 39920 ft | 448 kts | 334° |
| 2026-04-23 09:32 | 29.74012 | 140.43857 | 39927 ft | 449 kts | 334° |
| 2026-04-23 09:32 | 29.79971 | 140.41751 | 39919 ft | 450 kts | 334° |
| 2026-04-23 09:33 | 29.85943 | 140.39636 | 39922 ft | 450 kts | 334° |
| 2026-04-23 09:33 | 29.91948 | 140.37508 | 39918 ft | 450 kts | 334° |
| 2026-04-23 09:34 | 29.97939 | 140.35382 | 39913 ft | 449 kts | 334° |
| 2026-04-23 09:34 | 30.03873 | 140.33273 | 39912 ft | 448 kts | 334° |
| 2026-04-23 09:35 | 30.09814 | 140.31156 | 39903 ft | 447 kts | 334° |
| 2026-04-23 09:35 | 30.15753 | 140.29039 | 39903 ft | 446 kts | 334° |
| 2026-04-23 09:36 | 30.21685 | 140.26922 | 39903 ft | 445 kts | 334° |
| 2026-04-23 09:36 | 30.27601 | 140.24806 | 39904 ft | 446 kts | 334° |
| 2026-04-23 09:37 | 30.33525 | 140.22687 | 39899 ft | 448 kts | 334° |
| 2026-04-23 09:37 | 30.39462 | 140.20559 | 39895 ft | 448 kts | 334° |
| 2026-04-23 09:38 | 30.45422 | 140.18422 | 39890 ft | 447 kts | 333° |
| 2026-04-23 09:38 | 30.51336 | 140.16296 | 39885 ft | 445 kts | 333° |
| 2026-04-23 09:39 | 30.57271 | 140.14162 | 39885 ft | 445 kts | 333° |
| 2026-04-23 09:39 | 30.63168 | 140.12038 | 39880 ft | 445 kts | 333° |
| 2026-04-23 09:40 | 30.69087 | 140.09904 | 39877 ft | 444 kts | 333° |
| 2026-04-23 09:40 | 30.74956 | 140.07784 | 39879 ft | 444 kts | 333° |
| 2026-04-23 09:41 | 30.80881 | 140.05641 | 39871 ft | 446 kts | 333° |
| 2026-04-23 09:41 | 30.86816 | 140.03493 | 39866 ft | 447 kts | 333° |
| 2026-04-23 09:42 | 30.92745 | 140.01344 | 39865 ft | 448 kts | 333° |
| 2026-04-23 09:42 | 30.98720 | 139.99183 | 39862 ft | 450 kts | 336° |
| 2026-04-23 09:43 | 31.03939 | 139.98129 | 39853 ft | 462 kts | 343° |
| 2026-04-23 09:43 | 31.10280 | 139.97189 | 39857 ft | 460 kts | 343° |
| 2026-04-23 09:44 | 31.16652 | 139.96246 | 39854 ft | 459 kts | 343° |
| 2026-04-23 09:44 | 31.22971 | 139.95308 | 39851 ft | 460 kts | 342° |
| 2026-04-23 09:45 | 31.29315 | 139.94366 | 39850 ft | 462 kts | 342° |
| 2026-04-23 09:45 | 31.35698 | 139.93418 | 39842 ft | 464 kts | 342° |
| 2026-04-23 09:46 | 31.42110 | 139.92464 | 39843 ft | 463 kts | 342° |
| 2026-04-23 09:46 | 31.48485 | 139.91513 | 39839 ft | 463 kts | 342° |
| 2026-04-23 09:47 | 31.54885 | 139.90559 | 39838 ft | 461 kts | 342° |
| 2026-04-23 09:47 | 31.61232 | 139.89608 | 39832 ft | 461 kts | 342° |
| 2026-04-23 09:48 | 31.67612 | 139.88653 | 39833 ft | 461 kts | 342° |
| 2026-04-23 09:48 | 31.73997 | 139.87696 | 39827 ft | 462 kts | 342° |
| 2026-04-23 09:49 | 31.80369 | 139.86740 | 39825 ft | 463 kts | 342° |
| 2026-04-23 09:49 | 31.86738 | 139.85783 | 39823 ft | 463 kts | 342° |
| 2026-04-23 09:50 | 31.93150 | 139.84817 | 39824 ft | 463 kts | 342° |
| 2026-04-23 09:50 | 31.99437 | 139.83870 | 39817 ft | 463 kts | 342° |
| 2026-04-23 09:51 | 32.05853 | 139.82901 | 39811 ft | 463 kts | 342° |
| 2026-04-23 09:51 | 32.12217 | 139.81939 | 39815 ft | 463 kts | 342° |
| 2026-04-23 09:52 | 32.18620 | 139.80970 | 39812 ft | 463 kts | 342° |
| 2026-04-23 09:52 | 32.25003 | 139.80002 | 39811 ft | 463 kts | 342° |
| 2026-04-23 09:53 | 32.31367 | 139.79037 | 39810 ft | 462 kts | 342° |
| 2026-04-23 09:53 | 32.37758 | 139.78064 | 39808 ft | 462 kts | 341° |
| 2026-04-23 09:54 | 32.44173 | 139.77087 | 39806 ft | 463 kts | 341° |
| 2026-04-23 09:54 | 32.50551 | 139.76114 | 39806 ft | 463 kts | 341° |
| 2026-04-23 09:55 | 32.56947 | 139.75133 | 39805 ft | 465 kts | 341° |
| 2026-04-23 09:55 | 32.63388 | 139.74149 | 39804 ft | 465 kts | 341° |
| 2026-04-23 09:56 | 32.69768 | 139.73170 | 39803 ft | 464 kts | 341° |
| 2026-04-23 09:56 | 32.76224 | 139.72408 | 39811 ft | 474 kts | 351° |
| 2026-04-23 09:56 | 32.79553 | 139.72714 | 39818 ft | 487 kts | 359° |
| 2026-04-23 09:57 | 32.82926 | 139.73497 | 39800 ft | 492 kts | 0° |
| 2026-04-23 09:57 | 32.89603 | 139.75140 | 39796 ft | 492 kts | 1° |
| 2026-04-23 09:58 | 32.96327 | 139.76792 | 39798 ft | 491 kts | 0° |
| 2026-04-23 09:58 | 33.03003 | 139.78435 | 39797 ft | 491 kts | 0° |
| 2026-04-23 09:59 | 33.09684 | 139.80082 | 39796 ft | 493 kts | 0° |
| 2026-04-23 09:59 | 33.16436 | 139.81749 | 39790 ft | 495 kts | 0° |
| 2026-04-23 10:00 | 33.23176 | 139.83417 | 39797 ft | 496 kts | 0° |
| 2026-04-23 10:00 | 33.29957 | 139.85097 | 39794 ft | 497 kts | 0° |
| 2026-04-23 10:01 | 33.36707 | 139.86773 | 39798 ft | 497 kts | 0° |
| 2026-04-23 10:01 | 33.43470 | 139.88453 | 39794 ft | 498 kts | 0° |
| 2026-04-23 10:02 | 33.50268 | 139.90147 | 39795 ft | 498 kts | 0° |
| 2026-04-23 10:02 | 33.57063 | 139.91840 | 39796 ft | 497 kts | 360° |
| 2026-04-23 10:03 | 33.63802 | 139.93523 | 39800 ft | 496 kts | 360° |
| 2026-04-23 10:03 | 33.70589 | 139.95219 | 39805 ft | 496 kts | 360° |
| 2026-04-23 10:04 | 33.77330 | 139.96907 | 39805 ft | 495 kts | 360° |
| 2026-04-23 10:04 | 33.84069 | 139.98596 | 39794 ft | 495 kts | 360° |
| 2026-04-23 10:05 | 33.90778 | 140.00282 | 39807 ft | 494 kts | 360° |
| 2026-04-23 10:05 | 33.97531 | 140.01810 | 39831 ft | 483 kts | 352° |
| 2026-04-23 10:05 | 34.00814 | 140.01903 | 39825 ft | 469 kts | 343° |
| 2026-04-23 10:06 | 34.04033 | 140.01533 | 39807 ft | 464 kts | 341° |
| 2026-04-23 10:06 | 34.10482 | 140.00682 | 39805 ft | 467 kts | 341° |
| 2026-04-23 10:07 | 34.16942 | 139.99843 | 39807 ft | 465 kts | 341° |
| 2026-04-23 10:07 | 34.23367 | 139.99044 | 39818 ft | 471 kts | 347° |
| 2026-04-23 10:07 | 34.26698 | 139.99159 | 39827 ft | 485 kts | 355° |
| 2026-04-23 10:08 | 34.30032 | 139.99868 | 39828 ft | 499 kts | 5° |
| 2026-04-23 10:08 | 34.33374 | 140.01230 | 39835 ft | 513 kts | 14° |
| 2026-04-23 10:08 | 34.36586 | 140.03256 | 39837 ft | 527 kts | 25° |
| 2026-04-23 10:09 | 34.42204 | 140.09201 | 39371 ft | 539 kts | 45° |
| 2026-04-23 10:09 | 34.44584 | 140.12717 | 37544 ft | 551 kts | 46° |
| 2026-04-23 10:09 | 34.46829 | 140.16550 | 35842 ft | 560 kts | 55° |
| 2026-04-23 10:09 | 34.48831 | 140.20558 | 34925 ft | 546 kts | 54° |
| 2026-04-23 10:10 | 34.50809 | 140.24436 | 33519 ft | 535 kts | 53° |
| 2026-04-23 10:10 | 34.52854 | 140.28311 | 30847 ft | 558 kts | 53° |
| 2026-04-23 10:10 | 34.54897 | 140.32193 | 29689 ft | 540 kts | 54° |
| 2026-04-23 10:10 | 34.56838 | 140.36011 | 28155 ft | 525 kts | 55° |
| 2026-04-23 10:11 | 34.58743 | 140.39774 | 26596 ft | 514 kts | 55° |
| 2026-04-23 10:11 | 34.60606 | 140.43377 | 25111 ft | 504 kts | 55° |
| 2026-04-23 10:11 | 34.62472 | 140.46964 | 23661 ft | 495 kts | 55° |
| 2026-04-23 10:11 | 34.64264 | 140.50454 | 22074 ft | 487 kts | 56° |
| 2026-04-23 10:12 | 34.66032 | 140.53931 | 20550 ft | 477 kts | 56° |
| 2026-04-23 10:12 | 34.67770 | 140.57330 | 19086 ft | 468 kts | 56° |
| 2026-04-23 10:12 | 34.69503 | 140.60643 | 17645 ft | 458 kts | 51° |
| 2026-04-23 10:12 | 34.71491 | 140.63417 | 17276 ft | 432 kts | 39° |
| 2026-04-23 10:13 | 34.73906 | 140.65716 | 16807 ft | 441 kts | 26° |
| 2026-04-23 10:13 | 34.76606 | 140.67370 | 16244 ft | 427 kts | 14° |
| 2026-04-23 10:13 | 34.79432 | 140.68332 | 15670 ft | 413 kts | 2° |
| 2026-04-23 10:13 | 34.82255 | 140.68745 | 15095 ft | 405 kts | 360° |
| 2026-04-23 10:14 | 34.85010 | 140.69111 | 14549 ft | 402 kts | 0° |
| 2026-04-23 10:14 | 34.87795 | 140.69457 | 13980 ft | 398 kts | 0° |
| 2026-04-23 10:14 | 34.90532 | 140.69785 | 13389 ft | 383 kts | 1° |
| 2026-04-23 10:14 | 34.93072 | 140.70110 | 12875 ft | 351 kts | 1° |
| 2026-04-23 10:15 | 34.95415 | 140.70408 | 12396 ft | 325 kts | 1° |
| 2026-04-23 10:15 | 34.97565 | 140.70672 | 11963 ft | 303 kts | 1° |
| 2026-04-23 10:15 | 34.99601 | 140.70920 | 11548 ft | 284 kts | 2° |
| 2026-04-23 10:15 | 35.01517 | 140.71158 | 11273 ft | 271 kts | 2° |
| 2026-04-23 10:16 | 35.03408 | 140.71391 | 11183 ft | 276 kts | 2° |
| 2026-04-23 10:16 | 35.05310 | 140.71625 | 11094 ft | 278 kts | 2° |
| 2026-04-23 10:16 | 35.07223 | 140.72092 | 11007 ft | 282 kts | 24° |
| 2026-04-23 10:16 | 35.08763 | 140.73503 | 10995 ft | 279 kts | 50° |
| 2026-04-23 10:17 | 35.09988 | 140.75380 | 10992 ft | 284 kts | 53° |
| 2026-04-23 10:17 | 35.11184 | 140.77302 | 10994 ft | 283 kts | 53° |
| 2026-04-23 10:17 | 35.12387 | 140.79234 | 10996 ft | 285 kts | 53° |
| 2026-04-23 10:17 | 35.13588 | 140.81129 | 10995 ft | 285 kts | 52° |
| 2026-04-23 10:18 | 35.14808 | 140.83049 | 10999 ft | 285 kts | 52° |
| 2026-04-23 10:18 | 35.16025 | 140.84977 | 11001 ft | 286 kts | 53° |
| 2026-04-23 10:18 | 35.17227 | 140.86888 | 10996 ft | 285 kts | 53° |
| 2026-04-23 10:18 | 35.18441 | 140.88812 | 10994 ft | 285 kts | 53° |
| 2026-04-23 10:19 | 35.19665 | 140.90727 | 10997 ft | 285 kts | 52° |
| 2026-04-23 10:19 | 35.20893 | 140.92646 | 10998 ft | 284 kts | 52° |
| 2026-04-23 10:19 | 35.22091 | 140.94531 | 10995 ft | 284 kts | 52° |
| 2026-04-23 10:19 | 35.23306 | 140.96448 | 11001 ft | 285 kts | 52° |
| 2026-04-23 10:20 | 35.24551 | 140.98335 | 11004 ft | 284 kts | 44° |
| 2026-04-23 10:20 | 35.26190 | 140.99661 | 11002 ft | 283 kts | 26° |
| 2026-04-23 10:20 | 35.27889 | 141.00850 | 11003 ft | 284 kts | 28° |
| 2026-04-23 10:20 | 35.29596 | 141.02078 | 11005 ft | 284 kts | 28° |
| 2026-04-23 10:21 | 35.31316 | 141.03289 | 11007 ft | 284 kts | 28° |
| 2026-04-23 10:21 | 35.33103 | 141.04266 | 11011 ft | 278 kts | 8° |
| 2026-04-23 10:21 | 35.34995 | 141.04670 | 11008 ft | 279 kts | 7° |
| 2026-04-23 10:21 | 35.36903 | 141.05126 | 11009 ft | 279 kts | 8° |
| 2026-04-23 10:22 | 35.38820 | 141.05585 | 11012 ft | 279 kts | 7° |
| 2026-04-23 10:22 | 35.40708 | 141.06010 | 11009 ft | 278 kts | 4° |
| 2026-04-23 10:22 | 35.42591 | 141.05856 | 11006 ft | 270 kts | 342° |
| 2026-04-23 10:22 | 35.44436 | 141.05370 | 11007 ft | 271 kts | 343° |
| 2026-04-23 10:23 | 35.46288 | 141.04910 | 11010 ft | 271 kts | 343° |
| 2026-04-23 10:23 | 35.48138 | 141.04433 | 11011 ft | 271 kts | 341° |
| 2026-04-23 10:23 | 35.49773 | 141.03488 | 11014 ft | 260 kts | 315° |
| 2026-04-23 10:23 | 35.50911 | 141.01851 | 11019 ft | 250 kts | 292° |
| 2026-04-23 10:24 | 35.51407 | 140.99851 | 11025 ft | 242 kts | 270° |
| 2026-04-23 10:24 | 35.51239 | 140.97833 | 11020 ft | 237 kts | 249° |
| 2026-04-23 10:24 | 35.50584 | 140.95975 | 10948 ft | 238 kts | 244° |
| 2026-04-23 10:24 | 35.49877 | 140.94104 | 10560 ft | 243 kts | 244° |
| 2026-04-23 10:25 | 35.49164 | 140.92239 | 10160 ft | 244 kts | 244° |
| 2026-04-23 10:25 | 35.48444 | 140.90352 | 9743 ft | 244 kts | 243° |
| 2026-04-23 10:25 | 35.47725 | 140.88467 | 9301 ft | 242 kts | 244° |
| 2026-04-23 10:25 | 35.47036 | 140.86654 | 8889 ft | 225 kts | 244° |
| 2026-04-23 10:26 | 35.46391 | 140.84963 | 8511 ft | 212 kts | 244° |
| 2026-04-23 10:26 | 35.45783 | 140.83373 | 8171 ft | 202 kts | 244° |
| 2026-04-23 10:26 | 35.45196 | 140.81834 | 7852 ft | 197 kts | 244° |
| 2026-04-23 10:26 | 35.44620 | 140.80328 | 7510 ft | 196 kts | 243° |
| 2026-04-23 10:27 | 35.44036 | 140.78805 | 7186 ft | 199 kts | 244° |
| 2026-04-23 10:27 | 35.43439 | 140.77243 | 6848 ft | 204 kts | 244° |
| 2026-04-23 10:27 | 35.42829 | 140.75651 | 6501 ft | 204 kts | 244° |
| 2026-04-23 10:27 | 35.42242 | 140.74095 | 6161 ft | 197 kts | 247° |
| 2026-04-23 10:28 | 35.42098 | 140.72468 | 5809 ft | 195 kts | 279° |
| 2026-04-23 10:28 | 35.42513 | 140.70908 | 5504 ft | 195 kts | 288° |
| 2026-04-23 10:28 | 35.42997 | 140.69339 | 5179 ft | 196 kts | 289° |
| 2026-04-23 10:28 | 35.43316 | 140.68295 | 4956 ft | 197 kts | 288° |
| 2026-04-23 10:29 | 35.43790 | 140.66716 | 4616 ft | 197 kts | 288° |
| 2026-04-23 10:29 | 35.44260 | 140.65145 | 4289 ft | 193 kts | 288° |
| 2026-04-23 10:29 | 35.44741 | 140.63668 | 3988 ft | 184 kts | 296° |
| 2026-04-23 10:29 | 35.45611 | 140.62613 | 3971 ft | 168 kts | 316° |
| 2026-04-23 10:30 | 35.46439 | 140.61646 | 3977 ft | 164 kts | 313° |
| 2026-04-23 10:30 | 35.47258 | 140.60677 | 3978 ft | 161 kts | 313° |
| 2026-04-23 10:30 | 35.48079 | 140.59736 | 3988 ft | 160 kts | 313° |
| 2026-04-23 10:30 | 35.48881 | 140.58818 | 3991 ft | 160 kts | 314° |
| 2026-04-23 10:31 | 35.49698 | 140.57882 | 3983 ft | 159 kts | 313° |
| 2026-04-23 10:31 | 35.50402 | 140.56843 | 3985 ft | 158 kts | 306° |
| 2026-04-23 10:31 | 35.51160 | 140.55865 | 3962 ft | 162 kts | 319° |
| 2026-04-23 10:31 | 35.52117 | 140.55148 | 3995 ft | 160 kts | 324° |
| 2026-04-23 10:32 | 35.53055 | 140.54433 | 3998 ft | 161 kts | 326° |
| 2026-04-23 10:32 | 35.54024 | 140.53730 | 3999 ft | 161 kts | 327° |
| 2026-04-23 10:32 | 35.54999 | 140.53025 | 4003 ft | 162 kts | 327° |
| 2026-04-23 10:32 | 35.55975 | 140.52321 | 4007 ft | 162 kts | 326° |
| 2026-04-23 10:33 | 35.56938 | 140.51625 | 3980 ft | 162 kts | 327° |
| 2026-04-23 10:33 | 35.57914 | 140.50920 | 3815 ft | 162 kts | 326° |
| 2026-04-23 10:33 | 35.58868 | 140.50233 | 3601 ft | 154 kts | 327° |
| 2026-04-23 10:33 | 35.59767 | 140.49585 | 3406 ft | 150 kts | 326° |
| 2026-04-23 10:34 | 35.60663 | 140.48937 | 3206 ft | 149 kts | 326° |
| 2026-04-23 10:34 | 35.61557 | 140.48289 | 3016 ft | 149 kts | 326° |
| 2026-04-23 10:34 | 35.62441 | 140.47651 | 2817 ft | 146 kts | 326° |
| 2026-04-23 10:34 | 35.63318 | 140.47018 | 2627 ft | 146 kts | 326° |
| 2026-04-23 10:35 | 35.64207 | 140.46385 | 2435 ft | 148 kts | 327° |
| 2026-04-23 10:35 | 35.65083 | 140.45751 | 2232 ft | 146 kts | 326° |
| 2026-04-23 10:35 | 35.65953 | 140.45123 | 2038 ft | 143 kts | 326° |
| 2026-04-23 10:35 | 35.66813 | 140.44497 | 1844 ft | 145 kts | 327° |
| 2026-04-23 10:36 | 35.67692 | 140.43871 | 1663 ft | 149 kts | 327° |
| 2026-04-23 10:36 | 35.68588 | 140.43224 | 1439 ft | 147 kts | 327° |
| 2026-04-23 10:36 | 35.69465 | 140.42587 | 1254 ft | 145 kts | 326° |
| 2026-04-23 10:36 | 35.70336 | 140.41966 | 1056 ft | 143 kts | 328° |
| 2026-04-23 10:37 | 35.71189 | 140.41351 | 883 ft | 144 kts | 327° |
| 2026-04-23 10:37 | 35.72022 | 140.40727 | 691 ft | 135 kts | 330° |
| 2026-04-23 10:37 | 35.72815 | 140.40157 | 536 ft | 132 kts | 332° |
| 2026-04-23 10:37 | 35.73614 | 140.39588 | 364 ft | 131 kts | 332° |
| 2026-04-23 10:38 | 35.74399 | 140.39021 | 195 ft | 131 kts | 332° |
| 2026-04-23 10:38 | 35.75116 | 140.38509 | 152 ft | 99 kts | 330° |
| 2026-04-23 10:38 | 35.75548 | 140.38214 | 152 ft | 35 kts | 341° |
| 2026-04-23 10:38 | 35.75724 | 140.38154 | 153 ft | 18 kts | 345° |
| 2026-04-23 10:39 | 35.75834 | 140.38118 | 151 ft | 14 kts | 345° |
| 2026-04-23 10:39 | 35.75918 | 140.38092 | 150 ft | 10 kts | 348° |
| 2026-04-23 10:39 | 35.75935 | 140.38093 | 150 ft | 4 kts | 20° |
| 2026-04-23 10:39 | 35.75972 | 140.38112 | 150 ft | 0 kts | 45° |
| 2026-04-23 10:40 | 35.75973 | 140.38115 | 150 ft | 1 kts | 57° |
| 2026-04-23 10:40 | 35.75985 | 140.38138 | 150 ft | 9 kts | 58° |
| 2026-04-23 10:40 | 35.76014 | 140.38214 | 150 ft | 4 kts | 92° |
| 2026-04-23 10:41 | 35.75986 | 140.38260 | 150 ft | 9 kts | 146° |
| 2026-04-23 10:41 | 35.75900 | 140.38324 | 150 ft | 18 kts | 148° |
| 2026-04-23 10:41 | 35.75798 | 140.38399 | 150 ft | 16 kts | 149° |
| 2026-04-23 10:41 | 35.75707 | 140.38466 | 151 ft | 14 kts | 149° |
| 2026-04-23 10:42 | 35.75620 | 140.38546 | 151 ft | 19 kts | 126° |
| 2026-04-23 10:42 | 35.75603 | 140.38675 | 151 ft | 14 kts | 82° |
| 2026-04-23 10:42 | 35.75622 | 140.38782 | 151 ft | 12 kts | 69° |
| 2026-04-23 10:42 | 35.75667 | 140.38854 | 151 ft | 11 kts | 27° |
| 2026-04-23 10:43 | 35.75729 | 140.38853 | 151 ft | 7 kts | 348° |
| 2026-04-23 10:43 | 35.75766 | 140.38843 | 151 ft | 9 kts | 340° |
| 2026-04-23 10:43 | 35.75820 | 140.38836 | 151 ft | 7 kts | 11° |
| 2026-04-23 10:43 | 35.75857 | 140.38852 | 151 ft | 6 kts | 22° |
| 2026-04-23 10:44 | 35.75915 | 140.38881 | 151 ft | 12 kts | 21° |
| 2026-04-23 10:44 | 35.75978 | 140.38893 | 151 ft | 3 kts | 348° |
| 2026-04-23 10:44 | 35.75985 | 140.38886 | 151 ft | 3 kts | 311° |
| 2026-04-23 10:44 | 35.76013 | 140.38835 | 151 ft | 8 kts | 300° |
| 2026-04-23 10:45 | 35.76033 | 140.38791 | 151 ft | 5 kts | 296° |
| 2026-04-23 10:45 | 35.76034 | 140.38737 | 150 ft | 5 kts | 242° |
| 2026-04-23 10:45 | 35.76030 | 140.38729 | 150 ft | 0 kts | 240° |